sensor_id;sensor_type;location;lat;lon;timestamp;temperature;humidity
13310;DHT22;6723;48.256;16.402;2023-05-23T00:02:09;18.30;99.90
13310;DHT22;6723;48.256;16.402;2023-05-23T00:04:38;18.30;99.90
13310;DHT22;6723;48.256;16.402;2023-05-23T00:07:03;18.30;99.90
13310;DHT22;6723;48.256;16.402;2023-05-23T00:09:30;18.30;99.90
13310;DHT22;6723;48.256;16.402;2023-05-23T00:11:56;18.20;99.90
13310;DHT22;6723;48.256;16.402;2023-05-23T00:14:22;18.20;99.90
13310;DHT22;6723;48.256;16.402;2023-05-23T00:16:48;18.20;99.90
13310;DHT22;6723;48.256;16.402;2023-05-23T00:19:14;18.20;99.90
13310;DHT22;6723;48.256;16.402;2023-05-23T00:21:46;18.10;99.90
13310;DHT22;6723;48.256;16.402;2023-05-23T00:24:16;18.00;99.90
13310;DHT22;6723;48.256;16.402;2023-05-23T00:26:44;18.00;99.90
13310;DHT22;6723;48.256;16.402;2023-05-23T00:29:10;18.00;99.90
13310;DHT22;6723;48.256;16.402;2023-05-23T00:31:42;18.00;99.90
13310;DHT22;6723;48.256;16.402;2023-05-23T00:34:12;18.00;99.90
13310;DHT22;6723;48.256;16.402;2023-05-23T00:36:38;18.00;99.90
13310;DHT22;6723;48.256;16.402;2023-05-23T00:39:06;17.90;99.90
13310;DHT22;6723;48.256;16.402;2023-05-23T00:41:33;17.90;99.90
13310;DHT22;6723;48.256;16.402;2023-05-23T00:44:00;17.80;99.90
13310;DHT22;6723;48.256;16.402;2023-05-23T00:46:28;17.80;99.90
13310;DHT22;6723;48.256;16.402;2023-05-23T00:48:54;17.70;99.90
13310;DHT22;6723;48.256;16.402;2023-05-23T00:51:20;17.70;99.90
13310;DHT22;6723;48.256;16.402;2023-05-23T00:53:47;17.70;99.90
13310;DHT22;6723;48.256;16.402;2023-05-23T00:56:13;17.70;99.90
13310;DHT22;6723;48.256;16.402;2023-05-23T00:58:39;17.70;99.90
13310;DHT22;6723;48.256;16.402;2023-05-23T01:01:06;17.60;99.90
13310;DHT22;6723;48.256;16.402;2023-05-23T01:03:32;17.70;99.90
13310;DHT22;6723;48.256;16.402;2023-05-23T01:05:58;17.70;99.90
13310;DHT22;6723;48.256;16.402;2023-05-23T01:08:24;17.60;99.90
13310;DHT22;6723;48.256;16.402;2023-05-23T01:10:50;17.60;99.90
13310;DHT22;6723;48.256;16.402;2023-05-23T01:14:10;17.60;99.90
13310;DHT22;6723;48.256;16.402;2023-05-23T01:16:52;17.60;99.90
13310;DHT22;6723;48.256;16.402;2023-05-23T01:21:55;17.50;99.90
13310;DHT22;6723;48.256;16.402;2023-05-23T01:24:46;17.50;99.90
13310;DHT22;6723;48.256;16.402;2023-05-23T01:27:35;17.30;99.90
13310;DHT22;6723;48.256;16.402;2023-05-23T01:30:04;17.30;99.90
13310;DHT22;6723;48.256;16.402;2023-05-23T01:32:32;17.30;99.90
13310;DHT22;6723;48.256;16.402;2023-05-23T01:34:58;17.40;99.90
13310;DHT22;6723;48.256;16.402;2023-05-23T01:37:25;17.30;99.90
13310;DHT22;6723;48.256;16.402;2023-05-23T01:39:51;17.20;99.90
13310;DHT22;6723;48.256;16.402;2023-05-23T01:42:17;17.20;99.90
13310;DHT22;6723;48.256;16.402;2023-05-23T01:44:44;17.10;99.90
13310;DHT22;6723;48.256;16.402;2023-05-23T01:47:12;17.00;99.90
13310;DHT22;6723;48.256;16.402;2023-05-23T01:49:40;17.00;99.90
13310;DHT22;6723;48.256;16.402;2023-05-23T01:52:07;16.90;99.90
13310;DHT22;6723;48.256;16.402;2023-05-23T01:54:36;16.90;99.90
13310;DHT22;6723;48.256;16.402;2023-05-23T01:57:04;16.90;99.90
13310;DHT22;6723;48.256;16.402;2023-05-23T01:59:30;16.90;99.90
13310;DHT22;6723;48.256;16.402;2023-05-23T02:01:56;16.80;99.90
13310;DHT22;6723;48.256;16.402;2023-05-23T02:04:22;16.80;99.90
13310;DHT22;6723;48.256;16.402;2023-05-23T02:06:48;16.70;99.90
13310;DHT22;6723;48.256;16.402;2023-05-23T02:09:13;16.70;99.90
13310;DHT22;6723;48.256;16.402;2023-05-23T02:11:40;16.70;99.90
13310;DHT22;6723;48.256;16.402;2023-05-23T02:14:06;16.70;99.90
13310;DHT22;6723;48.256;16.402;2023-05-23T02:16:32;16.70;99.90
13310;DHT22;6723;48.256;16.402;2023-05-23T02:19:01;16.70;99.90
13310;DHT22;6723;48.256;16.402;2023-05-23T02:21:26;16.80;99.90
13310;DHT22;6723;48.256;16.402;2023-05-23T02:23:52;16.80;99.90
13310;DHT22;6723;48.256;16.402;2023-05-23T02:26:18;16.80;99.90
13310;DHT22;6723;48.256;16.402;2023-05-23T02:28:50;16.80;99.90
13310;DHT22;6723;48.256;16.402;2023-05-23T02:31:15;16.80;99.90
13310;DHT22;6723;48.256;16.402;2023-05-23T02:33:41;16.70;99.90
13310;DHT22;6723;48.256;16.402;2023-05-23T02:36:07;16.80;99.90
13310;DHT22;6723;48.256;16.402;2023-05-23T02:38:33;16.60;99.90
13310;DHT22;6723;48.256;16.402;2023-05-23T02:40:58;16.60;99.90
13310;DHT22;6723;48.256;16.402;2023-05-23T02:43:25;16.60;99.90
13310;DHT22;6723;48.256;16.402;2023-05-23T02:45:51;16.60;99.90
13310;DHT22;6723;48.256;16.402;2023-05-23T02:48:16;16.60;99.90
13310;DHT22;6723;48.256;16.402;2023-05-23T02:50:42;16.50;99.90
13310;DHT22;6723;48.256;16.402;2023-05-23T02:53:08;16.60;99.90
13310;DHT22;6723;48.256;16.402;2023-05-23T02:55:34;16.50;99.90
13310;DHT22;6723;48.256;16.402;2023-05-23T02:57:59;16.50;99.90
13310;DHT22;6723;48.256;16.402;2023-05-23T03:00:26;16.50;99.90
13310;DHT22;6723;48.256;16.402;2023-05-23T03:02:52;16.40;99.90
13310;DHT22;6723;48.256;16.402;2023-05-23T03:05:18;16.40;99.90
13310;DHT22;6723;48.256;16.402;2023-05-23T03:07:44;16.40;99.90
13310;DHT22;6723;48.256;16.402;2023-05-23T03:10:10;16.30;99.90
13310;DHT22;6723;48.256;16.402;2023-05-23T03:12:36;16.30;99.90
13310;DHT22;6723;48.256;16.402;2023-05-23T03:15:02;16.30;99.90
13310;DHT22;6723;48.256;16.402;2023-05-23T03:17:28;16.30;99.90
13310;DHT22;6723;48.256;16.402;2023-05-23T03:19:54;16.30;99.90
13310;DHT22;6723;48.256;16.402;2023-05-23T03:22:20;16.30;99.90
13310;DHT22;6723;48.256;16.402;2023-05-23T03:24:45;16.30;99.90
13310;DHT22;6723;48.256;16.402;2023-05-23T03:27:11;16.30;99.90
13310;DHT22;6723;48.256;16.402;2023-05-23T03:29:37;16.20;99.90
13310;DHT22;6723;48.256;16.402;2023-05-23T03:32:03;16.20;99.90
13310;DHT22;6723;48.256;16.402;2023-05-23T03:34:29;16.30;99.90
13310;DHT22;6723;48.256;16.402;2023-05-23T03:36:58;16.30;99.90
13310;DHT22;6723;48.256;16.402;2023-05-23T03:39:24;16.40;99.90
13310;DHT22;6723;48.256;16.402;2023-05-23T03:41:50;16.40;99.90
13310;DHT22;6723;48.256;16.402;2023-05-23T03:44:15;16.50;99.90
13310;DHT22;6723;48.256;16.402;2023-05-23T03:46:41;16.50;99.90
13310;DHT22;6723;48.256;16.402;2023-05-23T03:49:07;16.60;99.90
13310;DHT22;6723;48.256;16.402;2023-05-23T03:51:33;16.50;99.90
13310;DHT22;6723;48.256;16.402;2023-05-23T03:53:59;16.50;99.90
13310;DHT22;6723;48.256;16.402;2023-05-23T03:56:24;16.60;99.90
13310;DHT22;6723;48.256;16.402;2023-05-23T03:58:50;16.60;99.90
13310;DHT22;6723;48.256;16.402;2023-05-23T04:01:16;16.60;99.90
13310;DHT22;6723;48.256;16.402;2023-05-23T04:03:42;16.60;99.90
13310;DHT22;6723;48.256;16.402;2023-05-23T04:06:08;16.70;99.90
13310;DHT22;6723;48.256;16.402;2023-05-23T04:08:33;16.70;99.90
13310;DHT22;6723;48.256;16.402;2023-05-23T04:11:00;16.70;99.90
13310;DHT22;6723;48.256;16.402;2023-05-23T04:13:29;16.70;99.90
13310;DHT22;6723;48.256;16.402;2023-05-23T04:15:55;16.70;99.90
13310;DHT22;6723;48.256;16.402;2023-05-23T04:18:21;16.70;99.90
13310;DHT22;6723;48.256;16.402;2023-05-23T04:20:48;16.80;99.90
13310;DHT22;6723;48.256;16.402;2023-05-23T04:23:14;16.90;99.90
13310;DHT22;6723;48.256;16.402;2023-05-23T04:25:40;17.00;99.90
13310;DHT22;6723;48.256;16.402;2023-05-23T04:28:05;17.10;99.90
13310;DHT22;6723;48.256;16.402;2023-05-23T04:30:32;17.10;99.90
13310;DHT22;6723;48.256;16.402;2023-05-23T04:32:58;17.20;99.90
13310;DHT22;6723;48.256;16.402;2023-05-23T04:35:25;17.30;99.90
13310;DHT22;6723;48.256;16.402;2023-05-23T04:37:54;17.40;99.90
13310;DHT22;6723;48.256;16.402;2023-05-23T04:40:24;17.50;99.90
13310;DHT22;6723;48.256;16.402;2023-05-23T04:42:50;17.60;99.90
13310;DHT22;6723;48.256;16.402;2023-05-23T04:45:18;17.70;99.90
13310;DHT22;6723;48.256;16.402;2023-05-23T04:47:45;17.70;99.90
13310;DHT22;6723;48.256;16.402;2023-05-23T04:50:11;17.70;99.90
13310;DHT22;6723;48.256;16.402;2023-05-23T04:52:37;17.80;99.90
13310;DHT22;6723;48.256;16.402;2023-05-23T04:55:03;18.00;99.90
13310;DHT22;6723;48.256;16.402;2023-05-23T04:57:29;18.00;99.90
13310;DHT22;6723;48.256;16.402;2023-05-23T04:59:54;18.00;99.90
13310;DHT22;6723;48.256;16.402;2023-05-23T05:02:21;18.10;99.90
13310;DHT22;6723;48.256;16.402;2023-05-23T05:04:47;18.20;99.90
13310;DHT22;6723;48.256;16.402;2023-05-23T05:07:13;18.30;99.90
13310;DHT22;6723;48.256;16.402;2023-05-23T05:09:38;18.30;99.90
13310;DHT22;6723;48.256;16.402;2023-05-23T05:12:04;18.20;99.90
13310;DHT22;6723;48.256;16.402;2023-05-23T05:14:30;18.20;99.90
13310;DHT22;6723;48.256;16.402;2023-05-23T05:16:56;18.30;99.90
13310;DHT22;6723;48.256;16.402;2023-05-23T05:19:25;18.40;99.90
13310;DHT22;6723;48.256;16.402;2023-05-23T05:21:50;18.60;99.90
13310;DHT22;6723;48.256;16.402;2023-05-23T05:24:17;18.80;99.90
13310;DHT22;6723;48.256;16.402;2023-05-23T05:26:46;19.00;99.90
13310;DHT22;6723;48.256;16.402;2023-05-23T05:29:12;19.30;99.90
13310;DHT22;6723;48.256;16.402;2023-05-23T05:31:38;19.50;99.90
13310;DHT22;6723;48.256;16.402;2023-05-23T05:34:05;19.70;99.90
13310;DHT22;6723;48.256;16.402;2023-05-23T05:36:30;19.80;99.90
13310;DHT22;6723;48.256;16.402;2023-05-23T05:38:57;19.70;99.90
13310;DHT22;6723;48.256;16.402;2023-05-23T05:41:22;19.70;99.90
13310;DHT22;6723;48.256;16.402;2023-05-23T05:43:48;19.70;99.90
13310;DHT22;6723;48.256;16.402;2023-05-23T05:46:14;19.90;99.90
13310;DHT22;6723;48.256;16.402;2023-05-23T05:48:40;19.90;99.90
13310;DHT22;6723;48.256;16.402;2023-05-23T05:51:06;20.10;99.90
13310;DHT22;6723;48.256;16.402;2023-05-23T05:53:31;20.00;99.90
13310;DHT22;6723;48.256;16.402;2023-05-23T05:55:57;20.20;99.90
13310;DHT22;6723;48.256;16.402;2023-05-23T05:58:23;20.50;99.90
13310;DHT22;6723;48.256;16.402;2023-05-23T06:00:48;20.80;99.90
13310;DHT22;6723;48.256;16.402;2023-05-23T06:03:14;21.00;99.90
13310;DHT22;6723;48.256;16.402;2023-05-23T06:05:40;21.30;99.90
13310;DHT22;6723;48.256;16.402;2023-05-23T06:08:06;21.50;99.90
13310;DHT22;6723;48.256;16.402;2023-05-23T06:10:32;21.60;99.90
13310;DHT22;6723;48.256;16.402;2023-05-23T06:12:59;21.80;99.90
13310;DHT22;6723;48.256;16.402;2023-05-23T06:15:25;21.70;99.90
13310;DHT22;6723;48.256;16.402;2023-05-23T06:17:51;21.70;99.90
13310;DHT22;6723;48.256;16.402;2023-05-23T06:20:17;21.60;99.90
13310;DHT22;6723;48.256;16.402;2023-05-23T06:22:43;21.50;99.90
13310;DHT22;6723;48.256;16.402;2023-05-23T06:25:09;21.60;99.90
13310;DHT22;6723;48.256;16.402;2023-05-23T06:27:34;21.40;99.90
13310;DHT22;6723;48.256;16.402;2023-05-23T06:30:01;21.30;99.90
13310;DHT22;6723;48.256;16.402;2023-05-23T06:32:27;21.50;99.90
13310;DHT22;6723;48.256;16.402;2023-05-23T06:34:52;21.70;99.90
13310;DHT22;6723;48.256;16.402;2023-05-23T06:37:18;21.70;99.90
13310;DHT22;6723;48.256;16.402;2023-05-23T06:39:44;22.10;99.90
13310;DHT22;6723;48.256;16.402;2023-05-23T06:42:09;22.30;99.90
13310;DHT22;6723;48.256;16.402;2023-05-23T06:44:35;22.30;99.90
13310;DHT22;6723;48.256;16.402;2023-05-23T06:47:01;22.60;99.90
13310;DHT22;6723;48.256;16.402;2023-05-23T06:49:27;23.00;99.90
13310;DHT22;6723;48.256;16.402;2023-05-23T06:51:52;23.20;99.90
13310;DHT22;6723;48.256;16.402;2023-05-23T06:54:18;23.60;99.90
13310;DHT22;6723;48.256;16.402;2023-05-23T06:56:44;24.00;99.90
13310;DHT22;6723;48.256;16.402;2023-05-23T06:59:10;24.20;99.90
13310;DHT22;6723;48.256;16.402;2023-05-23T07:01:36;24.40;99.90
13310;DHT22;6723;48.256;16.402;2023-05-23T07:04:02;24.60;99.90
13310;DHT22;6723;48.256;16.402;2023-05-23T07:06:28;24.80;99.90
13310;DHT22;6723;48.256;16.402;2023-05-23T07:08:54;25.00;99.90
13310;DHT22;6723;48.256;16.402;2023-05-23T07:11:23;25.20;99.90
13310;DHT22;6723;48.256;16.402;2023-05-23T07:13:49;25.60;99.90
13310;DHT22;6723;48.256;16.402;2023-05-23T07:16:15;25.80;99.30
13310;DHT22;6723;48.256;16.402;2023-05-23T07:18:40;26.30;99.60
13310;DHT22;6723;48.256;16.402;2023-05-23T07:21:06;27.00;98.50
13310;DHT22;6723;48.256;16.402;2023-05-23T07:23:32;27.70;98.00
13310;DHT22;6723;48.256;16.402;2023-05-23T07:26:01;29.00;96.40
13310;DHT22;6723;48.256;16.402;2023-05-23T07:28:27;29.70;94.30
13310;DHT22;6723;48.256;16.402;2023-05-23T07:30:54;29.90;93.60
13310;DHT22;6723;48.256;16.402;2023-05-23T07:33:36;30.60;92.90
13310;DHT22;6723;48.256;16.402;2023-05-23T07:36:02;31.40;91.50
13310;DHT22;6723;48.256;16.402;2023-05-23T07:38:27;32.20;90.30
13310;DHT22;6723;48.256;16.402;2023-05-23T07:40:53;32.90;88.10
13310;DHT22;6723;48.256;16.402;2023-05-23T07:43:19;33.00;86.10
13310;DHT22;6723;48.256;16.402;2023-05-23T07:45:44;32.80;85.80
13310;DHT22;6723;48.256;16.402;2023-05-23T07:48:10;33.20;84.10
13310;DHT22;6723;48.256;16.402;2023-05-23T07:50:39;33.70;82.00
13310;DHT22;6723;48.256;16.402;2023-05-23T07:53:05;33.90;82.10
13310;DHT22;6723;48.256;16.402;2023-05-23T07:55:31;34.40;79.40
13310;DHT22;6723;48.256;16.402;2023-05-23T07:57:56;34.40;78.30
13310;DHT22;6723;48.256;16.402;2023-05-23T08:00:22;34.20;77.90
13310;DHT22;6723;48.256;16.402;2023-05-23T08:02:48;34.30;77.80
13310;DHT22;6723;48.256;16.402;2023-05-23T08:05:14;34.20;75.80
13310;DHT22;6723;48.256;16.402;2023-05-23T08:07:40;34.00;75.60
13310;DHT22;6723;48.256;16.402;2023-05-23T08:10:06;33.10;75.60
13310;DHT22;6723;48.256;16.402;2023-05-23T08:12:32;32.00;77.40
13310;DHT22;6723;48.256;16.402;2023-05-23T08:14:58;32.50;77.60
13310;DHT22;6723;48.256;16.402;2023-05-23T08:17:24;33.20;77.50
13310;DHT22;6723;48.256;16.402;2023-05-23T08:19:50;34.20;75.80
13310;DHT22;6723;48.256;16.402;2023-05-23T08:22:16;34.40;75.80
13310;DHT22;6723;48.256;16.402;2023-05-23T08:24:41;33.90;74.30
13310;DHT22;6723;48.256;16.402;2023-05-23T08:27:07;34.40;74.90
13310;DHT22;6723;48.256;16.402;2023-05-23T08:29:33;34.70;74.20
13310;DHT22;6723;48.256;16.402;2023-05-23T08:32:03;34.50;74.90
13310;DHT22;6723;48.256;16.402;2023-05-23T08:34:29;34.70;73.50
13310;DHT22;6723;48.256;16.402;2023-05-23T08:36:55;35.10;73.40
13310;DHT22;6723;48.256;16.402;2023-05-23T08:39:21;35.60;72.50
13310;DHT22;6723;48.256;16.402;2023-05-23T08:41:47;35.60;72.70
13310;DHT22;6723;48.256;16.402;2023-05-23T08:44:13;35.80;71.60
13310;DHT22;6723;48.256;16.402;2023-05-23T08:46:45;35.90;71.30
13310;DHT22;6723;48.256;16.402;2023-05-23T08:49:13;36.00;70.20
13310;DHT22;6723;48.256;16.402;2023-05-23T08:51:42;36.00;69.90
13310;DHT22;6723;48.256;16.402;2023-05-23T08:54:09;35.70;70.10
13310;DHT22;6723;48.256;16.402;2023-05-23T08:56:38;35.40;70.40
13310;DHT22;6723;48.256;16.402;2023-05-23T08:59:04;35.30;70.00
13310;DHT22;6723;48.256;16.402;2023-05-23T09:01:31;35.50;71.10
13310;DHT22;6723;48.256;16.402;2023-05-23T09:03:58;36.90;67.70
13310;DHT22;6723;48.256;16.402;2023-05-23T09:06:29;36.20;66.30
13310;DHT22;6723;48.256;16.402;2023-05-23T09:08:57;35.50;66.70
13310;DHT22;6723;48.256;16.402;2023-05-23T09:11:23;35.30;65.90
13310;DHT22;6723;48.256;16.402;2023-05-23T09:13:49;34.80;67.80
13310;DHT22;6723;48.256;16.402;2023-05-23T09:16:15;35.30;68.40
13310;DHT22;6723;48.256;16.402;2023-05-23T09:18:46;35.50;68.10
13310;DHT22;6723;48.256;16.402;2023-05-23T09:21:13;36.20;67.70
13310;DHT22;6723;48.256;16.402;2023-05-23T09:23:40;36.30;66.90
13310;DHT22;6723;48.256;16.402;2023-05-23T09:26:10;35.70;65.40
13310;DHT22;6723;48.256;16.402;2023-05-23T09:28:38;34.30;66.80
13310;DHT22;6723;48.256;16.402;2023-05-23T09:31:06;35.30;67.70
13310;DHT22;6723;48.256;16.402;2023-05-23T09:36:06;33.00;67.70
13310;DHT22;6723;48.256;16.402;2023-05-23T09:38:39;33.30;68.70
13310;DHT22;6723;48.256;16.402;2023-05-23T09:41:06;33.70;68.50
13310;DHT22;6723;48.256;16.402;2023-05-23T09:43:32;33.70;69.10
13310;DHT22;6723;48.256;16.402;2023-05-23T09:46:09;34.10;68.10
13310;DHT22;6723;48.256;16.402;2023-05-23T09:48:35;33.70;67.60
13310;DHT22;6723;48.256;16.402;2023-05-23T09:51:06;34.00;67.80
13310;DHT22;6723;48.256;16.402;2023-05-23T09:53:32;34.30;69.70
13310;DHT22;6723;48.256;16.402;2023-05-23T09:55:58;34.20;68.50
13310;DHT22;6723;48.256;16.402;2023-05-23T09:58:26;34.40;68.40
13310;DHT22;6723;48.256;16.402;2023-05-23T10:00:55;34.00;66.00
13310;DHT22;6723;48.256;16.402;2023-05-23T10:06:24;32.20;67.90
13310;DHT22;6723;48.256;16.402;2023-05-23T10:09:12;32.10;68.60
13310;DHT22;6723;48.256;16.402;2023-05-23T10:14:53;31.80;69.00
13310;DHT22;6723;48.256;16.402;2023-05-23T10:20:00;32.00;69.20
13310;DHT22;6723;48.256;16.402;2023-05-23T10:22:27;32.40;68.90
13310;DHT22;6723;48.256;16.402;2023-05-23T10:24:53;32.00;67.20
13310;DHT22;6723;48.256;16.402;2023-05-23T10:27:20;32.10;69.30
13310;DHT22;6723;48.256;16.402;2023-05-23T10:29:46;32.10;68.50
13310;DHT22;6723;48.256;16.402;2023-05-23T10:32:13;31.90;69.30
13310;DHT22;6723;48.256;16.402;2023-05-23T10:37:47;32.30;69.30
13310;DHT22;6723;48.256;16.402;2023-05-23T10:40:23;32.30;70.20
13310;DHT22;6723;48.256;16.402;2023-05-23T10:45:41;32.10;68.30
13310;DHT22;6723;48.256;16.402;2023-05-23T10:48:40;31.90;68.30
13310;DHT22;6723;48.256;16.402;2023-05-23T10:51:09;32.10;69.30
13310;DHT22;6723;48.256;16.402;2023-05-23T10:53:37;31.50;69.40
13310;DHT22;6723;48.256;16.402;2023-05-23T10:56:05;31.70;69.90
13310;DHT22;6723;48.256;16.402;2023-05-23T10:58:35;31.90;70.30
13310;DHT22;6723;48.256;16.402;2023-05-23T11:01:05;32.40;70.00
13310;DHT22;6723;48.256;16.402;2023-05-23T11:06:03;33.20;69.40
13310;DHT22;6723;48.256;16.402;2023-05-23T11:08:40;33.60;69.70
13310;DHT22;6723;48.256;16.402;2023-05-23T11:11:07;33.10;67.20
13310;DHT22;6723;48.256;16.402;2023-05-23T11:16:29;32.70;67.00
13310;DHT22;6723;48.256;16.402;2023-05-23T11:21:50;33.10;65.00
13310;DHT22;6723;48.256;16.402;2023-05-23T11:24:16;33.10;64.20
13310;DHT22;6723;48.256;16.402;2023-05-23T11:26:58;33.30;65.00
13310;DHT22;6723;48.256;16.402;2023-05-23T11:29:29;32.90;65.60
13310;DHT22;6723;48.256;16.402;2023-05-23T11:31:56;32.60;65.50
13310;DHT22;6723;48.256;16.402;2023-05-23T11:34:24;32.80;66.60
13310;DHT22;6723;48.256;16.402;2023-05-23T11:36:54;32.80;68.90
13310;DHT22;6723;48.256;16.402;2023-05-23T11:39:21;32.30;68.40
13310;DHT22;6723;48.256;16.402;2023-05-23T11:42:01;31.90;69.10
13310;DHT22;6723;48.256;16.402;2023-05-23T11:44:27;32.10;70.30
13310;DHT22;6723;48.256;16.402;2023-05-23T11:47:03;32.00;69.20
13310;DHT22;6723;48.256;16.402;2023-05-23T11:49:33;31.70;69.40
13310;DHT22;6723;48.256;16.402;2023-05-23T11:52:01;31.70;69.70
13310;DHT22;6723;48.256;16.402;2023-05-23T11:54:28;31.20;68.60
13310;DHT22;6723;48.256;16.402;2023-05-23T11:56:54;31.20;65.80
13310;DHT22;6723;48.256;16.402;2023-05-23T11:59:25;30.80;65.00
13310;DHT22;6723;48.256;16.402;2023-05-23T12:01:52;30.60;64.90
13310;DHT22;6723;48.256;16.402;2023-05-23T12:04:18;30.40;66.00
13310;DHT22;6723;48.256;16.402;2023-05-23T12:06:48;30.60;65.80
13310;DHT22;6723;48.256;16.402;2023-05-23T12:09:15;30.70;66.10
13310;DHT22;6723;48.256;16.402;2023-05-23T12:11:42;30.90;65.10
13310;DHT22;6723;48.256;16.402;2023-05-23T12:14:13;31.30;65.80
13310;DHT22;6723;48.256;16.402;2023-05-23T12:16:45;31.30;66.50
13310;DHT22;6723;48.256;16.402;2023-05-23T12:19:15;31.50;67.60
13310;DHT22;6723;48.256;16.402;2023-05-23T12:21:44;31.20;63.10
13310;DHT22;6723;48.256;16.402;2023-05-23T12:24:18;31.20;64.50
13310;DHT22;6723;48.256;16.402;2023-05-23T12:26:57;31.60;65.00
13310;DHT22;6723;48.256;16.402;2023-05-23T12:29:30;31.40;63.80
13310;DHT22;6723;48.256;16.402;2023-05-23T12:32:00;31.10;63.80
13310;DHT22;6723;48.256;16.402;2023-05-23T12:34:27;31.30;65.20
13310;DHT22;6723;48.256;16.402;2023-05-23T12:37:00;30.80;66.20
13310;DHT22;6723;48.256;16.402;2023-05-23T12:39:29;31.00;66.80
13310;DHT22;6723;48.256;16.402;2023-05-23T12:42:08;31.30;67.70
13310;DHT22;6723;48.256;16.402;2023-05-23T12:44:34;31.30;66.40
13310;DHT22;6723;48.256;16.402;2023-05-23T12:47:02;31.40;67.60
13310;DHT22;6723;48.256;16.402;2023-05-23T12:49:27;31.40;67.00
13310;DHT22;6723;48.256;16.402;2023-05-23T12:51:53;30.80;67.50
13310;DHT22;6723;48.256;16.402;2023-05-23T12:54:19;30.30;67.90
13310;DHT22;6723;48.256;16.402;2023-05-23T12:56:45;30.50;67.70
13310;DHT22;6723;48.256;16.402;2023-05-23T12:59:11;30.20;68.20
13310;DHT22;6723;48.256;16.402;2023-05-23T13:01:36;29.80;68.40
13310;DHT22;6723;48.256;16.402;2023-05-23T13:04:03;29.80;69.80
13310;DHT22;6723;48.256;16.402;2023-05-23T13:06:29;29.50;70.70
13310;DHT22;6723;48.256;16.402;2023-05-23T13:08:54;29.30;72.00
13310;DHT22;6723;48.256;16.402;2023-05-23T13:11:20;29.10;72.10
13310;DHT22;6723;48.256;16.402;2023-05-23T13:13:52;28.80;72.90
13310;DHT22;6723;48.256;16.402;2023-05-23T13:16:18;28.70;73.70
13310;DHT22;6723;48.256;16.402;2023-05-23T13:18:43;28.70;74.20
13310;DHT22;6723;48.256;16.402;2023-05-23T13:21:09;28.50;75.00
13310;DHT22;6723;48.256;16.402;2023-05-23T13:23:35;28.80;75.90
13310;DHT22;6723;48.256;16.402;2023-05-23T13:26:03;28.70;75.20
13310;DHT22;6723;48.256;16.402;2023-05-23T13:28:29;28.70;76.10
13310;DHT22;6723;48.256;16.402;2023-05-23T13:30:55;28.90;76.60
13310;DHT22;6723;48.256;16.402;2023-05-23T13:33:21;28.90;76.30
13310;DHT22;6723;48.256;16.402;2023-05-23T13:35:48;28.70;76.40
13310;DHT22;6723;48.256;16.402;2023-05-23T13:38:20;28.60;77.60
13310;DHT22;6723;48.256;16.402;2023-05-23T13:40:46;28.50;77.80
13310;DHT22;6723;48.256;16.402;2023-05-23T13:43:12;28.40;78.60
13310;DHT22;6723;48.256;16.402;2023-05-23T13:45:38;28.00;78.30
13310;DHT22;6723;48.256;16.402;2023-05-23T13:48:03;28.10;78.90
13310;DHT22;6723;48.256;16.402;2023-05-23T13:50:29;27.80;79.40
13310;DHT22;6723;48.256;16.402;2023-05-23T13:52:55;27.60;80.10
13310;DHT22;6723;48.256;16.402;2023-05-23T13:55:21;27.10;81.30
13310;DHT22;6723;48.256;16.402;2023-05-23T13:57:47;27.00;82.70
13310;DHT22;6723;48.256;16.402;2023-05-23T14:00:13;26.90;83.50
13310;DHT22;6723;48.256;16.402;2023-05-23T14:02:39;26.70;84.40
13310;DHT22;6723;48.256;16.402;2023-05-23T14:05:05;26.50;84.40
13310;DHT22;6723;48.256;16.402;2023-05-23T14:07:34;26.20;81.80
13310;DHT22;6723;48.256;16.402;2023-05-23T14:10:00;25.80;82.70
13310;DHT22;6723;48.256;16.402;2023-05-23T14:12:26;25.20;89.90
13310;DHT22;6723;48.256;16.402;2023-05-23T14:14:52;24.60;92.10
13310;DHT22;6723;48.256;16.402;2023-05-23T14:17:18;24.00;94.00
13310;DHT22;6723;48.256;16.402;2023-05-23T14:19:44;23.80;95.70
13310;DHT22;6723;48.256;16.402;2023-05-23T14:22:10;23.30;98.40
13310;DHT22;6723;48.256;16.402;2023-05-23T14:24:36;22.90;99.90
13310;DHT22;6723;48.256;16.402;2023-05-23T14:27:03;22.60;99.90
13310;DHT22;6723;48.256;16.402;2023-05-23T14:29:28;22.20;99.90
13310;DHT22;6723;48.256;16.402;2023-05-23T14:31:54;22.20;99.90
13310;DHT22;6723;48.256;16.402;2023-05-23T14:34:21;22.00;99.90
13310;DHT22;6723;48.256;16.402;2023-05-23T14:36:46;22.00;99.90
13310;DHT22;6723;48.256;16.402;2023-05-23T14:39:12;22.00;99.90
13310;DHT22;6723;48.256;16.402;2023-05-23T14:41:39;21.90;99.90
13310;DHT22;6723;48.256;16.402;2023-05-23T14:44:05;21.80;99.90
13310;DHT22;6723;48.256;16.402;2023-05-23T14:46:31;21.80;99.90
13310;DHT22;6723;48.256;16.402;2023-05-23T14:48:57;21.90;99.90
13310;DHT22;6723;48.256;16.402;2023-05-23T14:51:22;22.00;99.90
13310;DHT22;6723;48.256;16.402;2023-05-23T14:53:48;21.90;99.90
13310;DHT22;6723;48.256;16.402;2023-05-23T14:56:14;21.80;99.90
13310;DHT22;6723;48.256;16.402;2023-05-23T14:58:40;21.90;99.90
13310;DHT22;6723;48.256;16.402;2023-05-23T15:01:11;21.90;99.90
13310;DHT22;6723;48.256;16.402;2023-05-23T15:03:37;21.90;99.90
13310;DHT22;6723;48.256;16.402;2023-05-23T15:06:03;22.00;99.90
13310;DHT22;6723;48.256;16.402;2023-05-23T15:08:31;21.90;99.90
13310;DHT22;6723;48.256;16.402;2023-05-23T15:10:58;21.80;99.90
13310;DHT22;6723;48.256;16.402;2023-05-23T15:13:24;21.80;99.90
13310;DHT22;6723;48.256;16.402;2023-05-23T15:15:50;21.80;99.90
13310;DHT22;6723;48.256;16.402;2023-05-23T15:18:16;21.80;99.90
13310;DHT22;6723;48.256;16.402;2023-05-23T15:20:42;21.80;99.90
13310;DHT22;6723;48.256;16.402;2023-05-23T15:23:08;21.60;99.90
13310;DHT22;6723;48.256;16.402;2023-05-23T15:25:34;21.30;99.90
13310;DHT22;6723;48.256;16.402;2023-05-23T15:28:00;21.20;99.90
13310;DHT22;6723;48.256;16.402;2023-05-23T15:30:26;21.10;99.90
13310;DHT22;6723;48.256;16.402;2023-05-23T15:32:51;21.00;99.90
13310;DHT22;6723;48.256;16.402;2023-05-23T15:35:17;20.70;99.90
13310;DHT22;6723;48.256;16.402;2023-05-23T15:37:43;20.60;99.90
13310;DHT22;6723;48.256;16.402;2023-05-23T15:40:11;20.60;99.90
13310;DHT22;6723;48.256;16.402;2023-05-23T15:42:37;20.50;99.90
13310;DHT22;6723;48.256;16.402;2023-05-23T15:45:03;20.40;99.90
13310;DHT22;6723;48.256;16.402;2023-05-23T15:47:30;20.30;99.90
13310;DHT22;6723;48.256;16.402;2023-05-23T15:49:55;20.10;99.90
13310;DHT22;6723;48.256;16.402;2023-05-23T15:52:21;20.20;99.90
13310;DHT22;6723;48.256;16.402;2023-05-23T15:54:47;20.20;99.90
13310;DHT22;6723;48.256;16.402;2023-05-23T15:57:13;20.30;99.90
13310;DHT22;6723;48.256;16.402;2023-05-23T15:59:39;20.30;99.90